Terminal Aerodrome Forecast
Issued by NWS

Home | Current Version | Previous Version | Text Only | Print | Product List | Glossary On
Versions: 1 2 3 4 5 6 7 8 9 10 11 12 13 14 15 16 17 18 19 20 21 22 23 24 25 26
000
FTUS41 KCAR 280826 AAA
TAFFVE
TAF AMD
KFVE 280826Z 2808/2906 17005KT 3SM BR SCT003
      TEMPO 2808/2811 1/2SM FG BKN002
     FM281100 21007KT 5SM BR SCT002
     FM281200 24010KT P6SM OVC025
     FM281600 25010G20KT P6SM -SHRA VCTS SCT025 OVC035CB
     FM282200 28009KT P6SM OVC030
     FM290000 34006KT P6SM BKN040=

USA.gov is the U.S. government's official web portal to all federal, state and local government web resources and services.